sensor_id;sensor_type;location;lat;lon;timestamp;P1;durP1;ratioP1;P2;durP2;ratioP2
59147;SDS011;44930;52.878;6.168;2022-11-15T00:02:08;21.77;;;15.27;;
59147;SDS011;44930;52.878;6.168;2022-11-15T00:04:33;24.02;;;15.10;;
59147;SDS011;44930;52.878;6.168;2022-11-15T00:06:59;24.83;;;16.42;;
59147;SDS011;44930;52.878;6.168;2022-11-15T00:09:24;25.27;;;16.73;;
59147;SDS011;44930;52.878;6.168;2022-11-15T00:11:51;25.05;;;16.38;;
59147;SDS011;44930;52.878;6.168;2022-11-15T00:14:16;24.25;;;15.80;;
59147;SDS011;44930;52.878;6.168;2022-11-15T00:16:42;22.08;;;15.43;;
59147;SDS011;44930;52.878;6.168;2022-11-15T00:19:08;23.83;;;16.70;;
59147;SDS011;44930;52.878;6.168;2022-11-15T00:21:33;23.00;;;14.75;;
59147;SDS011;44930;52.878;6.168;2022-11-15T00:24:00;21.42;;;15.05;;
59147;SDS011;44930;52.878;6.168;2022-11-15T00:26:25;24.92;;;17.95;;
59147;SDS011;44930;52.878;6.168;2022-11-15T00:28:52;24.55;;;17.75;;
59147;SDS011;44930;52.878;6.168;2022-11-15T00:31:18;25.50;;;18.63;;
59147;SDS011;44930;52.878;6.168;2022-11-15T00:33:44;24.35;;;18.52;;
59147;SDS011;44930;52.878;6.168;2022-11-15T00:36:10;27.48;;;18.65;;
59147;SDS011;44930;52.878;6.168;2022-11-15T00:38:36;26.92;;;18.13;;
59147;SDS011;44930;52.878;6.168;2022-11-15T00:41:04;26.83;;;19.50;;
59147;SDS011;44930;52.878;6.168;2022-11-15T00:43:31;27.95;;;19.45;;
59147;SDS011;44930;52.878;6.168;2022-11-15T00:45:56;27.60;;;18.85;;
59147;SDS011;44930;52.878;6.168;2022-11-15T00:48:22;28.95;;;19.15;;
59147;SDS011;44930;52.878;6.168;2022-11-15T00:50:48;28.42;;;20.02;;
59147;SDS011;44930;52.878;6.168;2022-11-15T00:53:15;26.40;;;18.30;;
59147;SDS011;44930;52.878;6.168;2022-11-15T00:55:41;28.00;;;19.60;;
59147;SDS011;44930;52.878;6.168;2022-11-15T00:58:06;28.10;;;18.70;;
59147;SDS011;44930;52.878;6.168;2022-11-15T01:00:32;26.90;;;18.92;;
59147;SDS011;44930;52.878;6.168;2022-11-15T01:02:58;30.75;;;19.63;;
59147;SDS011;44930;52.878;6.168;2022-11-15T01:05:25;29.73;;;19.05;;
59147;SDS011;44930;52.878;6.168;2022-11-15T01:07:51;33.72;;;20.08;;
59147;SDS011;44930;52.878;6.168;2022-11-15T01:10:18;28.55;;;18.33;;
59147;SDS011;44930;52.878;6.168;2022-11-15T01:12:43;37.13;;;20.55;;
59147;SDS011;44930;52.878;6.168;2022-11-15T01:15:09;31.17;;;18.92;;
59147;SDS011;44930;52.878;6.168;2022-11-15T01:17:34;28.95;;;18.58;;
59147;SDS011;44930;52.878;6.168;2022-11-15T01:20:00;28.38;;;19.15;;
59147;SDS011;44930;52.878;6.168;2022-11-15T01:22:26;31.95;;;18.13;;
59147;SDS011;44930;52.878;6.168;2022-11-15T01:24:51;30.55;;;19.30;;
59147;SDS011;44930;52.878;6.168;2022-11-15T01:27:17;33.83;;;19.35;;
59147;SDS011;44930;52.878;6.168;2022-11-15T01:29:43;29.63;;;19.20;;
59147;SDS011;44930;52.878;6.168;2022-11-15T01:32:08;30.45;;;17.58;;
59147;SDS011;44930;52.878;6.168;2022-11-15T01:34:34;28.73;;;17.42;;
59147;SDS011;44930;52.878;6.168;2022-11-15T01:36:59;25.70;;;16.75;;
59147;SDS011;44930;52.878;6.168;2022-11-15T01:39:25;27.38;;;18.17;;
59147;SDS011;44930;52.878;6.168;2022-11-15T01:41:51;29.92;;;17.88;;
59147;SDS011;44930;52.878;6.168;2022-11-15T01:47:03;31.45;;;18.85;;
59147;SDS011;44930;52.878;6.168;2022-11-15T01:49:33;28.38;;;17.35;;
59147;SDS011;44930;52.878;6.168;2022-11-15T01:52:02;28.75;;;17.98;;
59147;SDS011;44930;52.878;6.168;2022-11-15T01:54:30;28.38;;;17.08;;
59147;SDS011;44930;52.878;6.168;2022-11-15T01:57:01;29.10;;;19.50;;
59147;SDS011;44930;52.878;6.168;2022-11-15T01:59:32;27.75;;;17.75;;
59147;SDS011;44930;52.878;6.168;2022-11-15T02:01:58;31.08;;;19.52;;
59147;SDS011;44930;52.878;6.168;2022-11-15T02:04:25;32.55;;;18.80;;
59147;SDS011;44930;52.878;6.168;2022-11-15T02:06:52;33.53;;;19.35;;
59147;SDS011;44930;52.878;6.168;2022-11-15T02:09:18;31.60;;;19.00;;
59147;SDS011;44930;52.878;6.168;2022-11-15T02:11:44;32.53;;;18.60;;
59147;SDS011;44930;52.878;6.168;2022-11-15T02:14:11;33.53;;;19.88;;
59147;SDS011;44930;52.878;6.168;2022-11-15T02:16:57;31.80;;;19.55;;
59147;SDS011;44930;52.878;6.168;2022-11-15T02:25:18;35.67;;;19.85;;
59147;SDS011;44930;52.878;6.168;2022-11-15T02:28:10;34.58;;;19.58;;
59147;SDS011;44930;52.878;6.168;2022-11-15T02:30:42;32.38;;;19.17;;
59147;SDS011;44930;52.878;6.168;2022-11-15T02:41:17;40.83;;;20.45;;
59147;SDS011;44930;52.878;6.168;2022-11-15T02:43:50;35.63;;;20.25;;
59147;SDS011;44930;52.878;6.168;2022-11-15T02:49:11;34.50;;;19.45;;
59147;SDS011;44930;52.878;6.168;2022-11-15T02:51:39;43.50;;;21.70;;
59147;SDS011;44930;52.878;6.168;2022-11-15T02:54:05;41.13;;;21.52;;
59147;SDS011;44930;52.878;6.168;2022-11-15T02:56:31;44.53;;;21.85;;
59147;SDS011;44930;52.878;6.168;2022-11-15T02:59:00;42.40;;;20.92;;
59147;SDS011;44930;52.878;6.168;2022-11-15T03:06:49;39.83;;;20.45;;
59147;SDS011;44930;52.878;6.168;2022-11-15T03:09:34;43.60;;;21.50;;
59147;SDS011;44930;52.878;6.168;2022-11-15T03:12:26;46.15;;;21.58;;
59147;SDS011;44930;52.878;6.168;2022-11-15T03:14:55;44.25;;;21.75;;
59147;SDS011;44930;52.878;6.168;2022-11-15T03:17:30;50.65;;;22.83;;
59147;SDS011;44930;52.878;6.168;2022-11-15T03:20:01;44.93;;;21.93;;
59147;SDS011;44930;52.878;6.168;2022-11-15T03:22:32;36.97;;;20.27;;
59147;SDS011;44930;52.878;6.168;2022-11-15T03:25:02;50.78;;;23.10;;
59147;SDS011;44930;52.878;6.168;2022-11-15T03:27:32;42.65;;;22.25;;
59147;SDS011;44930;52.878;6.168;2022-11-15T03:30:03;47.17;;;21.45;;
59147;SDS011;44930;52.878;6.168;2022-11-15T03:32:31;49.83;;;23.08;;
59147;SDS011;44930;52.878;6.168;2022-11-15T03:35:09;51.30;;;23.60;;
59147;SDS011;44930;52.878;6.168;2022-11-15T03:37:49;46.33;;;23.70;;
59147;SDS011;44930;52.878;6.168;2022-11-15T03:40:21;44.78;;;20.85;;
59147;SDS011;44930;52.878;6.168;2022-11-15T03:43:13;46.00;;;23.33;;
59147;SDS011;44930;52.878;6.168;2022-11-15T03:46:02;42.20;;;21.42;;
59147;SDS011;44930;52.878;6.168;2022-11-15T03:48:34;47.30;;;21.67;;
59147;SDS011;44930;52.878;6.168;2022-11-15T03:51:09;46.03;;;22.35;;
59147;SDS011;44930;52.878;6.168;2022-11-15T03:53:36;43.90;;;22.17;;
59147;SDS011;44930;52.878;6.168;2022-11-15T03:56:01;50.30;;;23.15;;
59147;SDS011;44930;52.878;6.168;2022-11-15T03:58:27;46.38;;;21.70;;
59147;SDS011;44930;52.878;6.168;2022-11-15T04:00:52;48.58;;;22.85;;
59147;SDS011;44930;52.878;6.168;2022-11-15T04:03:18;49.53;;;22.45;;
59147;SDS011;44930;52.878;6.168;2022-11-15T04:05:43;48.72;;;23.23;;
59147;SDS011;44930;52.878;6.168;2022-11-15T04:08:09;46.40;;;23.00;;
59147;SDS011;44930;52.878;6.168;2022-11-15T04:10:34;48.15;;;22.55;;
59147;SDS011;44930;52.878;6.168;2022-11-15T04:13:02;51.95;;;24.88;;
59147;SDS011;44930;52.878;6.168;2022-11-15T04:15:27;53.65;;;24.85;;
59147;SDS011;44930;52.878;6.168;2022-11-15T04:17:55;54.10;;;24.67;;
59147;SDS011;44930;52.878;6.168;2022-11-15T04:20:23;63.40;;;25.20;;
59147;SDS011;44930;52.878;6.168;2022-11-15T04:23:11;53.58;;;25.77;;
59147;SDS011;44930;52.878;6.168;2022-11-15T04:25:58;48.38;;;24.02;;
59147;SDS011;44930;52.878;6.168;2022-11-15T04:28:25;53.20;;;25.17;;
59147;SDS011;44930;52.878;6.168;2022-11-15T04:30:51;55.85;;;25.17;;
59147;SDS011;44930;52.878;6.168;2022-11-15T04:33:17;58.38;;;25.45;;
59147;SDS011;44930;52.878;6.168;2022-11-15T04:35:42;57.83;;;26.33;;
59147;SDS011;44930;52.878;6.168;2022-11-15T04:38:09;63.55;;;28.10;;
59147;SDS011;44930;52.878;6.168;2022-11-15T04:40:36;60.00;;;29.27;;
59147;SDS011;44930;52.878;6.168;2022-11-15T04:43:02;68.28;;;29.30;;
59147;SDS011;44930;52.878;6.168;2022-11-15T04:45:28;64.38;;;27.85;;
59147;SDS011;44930;52.878;6.168;2022-11-15T04:47:54;73.47;;;30.02;;
59147;SDS011;44930;52.878;6.168;2022-11-15T04:50:19;71.82;;;29.17;;
59147;SDS011;44930;52.878;6.168;2022-11-15T04:52:52;76.78;;;32.42;;
59147;SDS011;44930;52.878;6.168;2022-11-15T04:55:19;63.28;;;30.15;;
59147;SDS011;44930;52.878;6.168;2022-11-15T04:57:45;77.38;;;28.63;;
59147;SDS011;44930;52.878;6.168;2022-11-15T05:00:12;67.60;;;31.02;;
59147;SDS011;44930;52.878;6.168;2022-11-15T05:02:39;73.43;;;31.83;;
59147;SDS011;44930;52.878;6.168;2022-11-15T05:05:23;67.20;;;30.30;;
59147;SDS011;44930;52.878;6.168;2022-11-15T05:07:49;80.72;;;32.92;;
59147;SDS011;44930;52.878;6.168;2022-11-15T05:10:15;78.78;;;33.15;;
59147;SDS011;44930;52.878;6.168;2022-11-15T05:12:41;80.13;;;34.33;;
59147;SDS011;44930;52.878;6.168;2022-11-15T05:15:06;69.22;;;31.48;;
59147;SDS011;44930;52.878;6.168;2022-11-15T05:17:32;79.05;;;32.30;;
59147;SDS011;44930;52.878;6.168;2022-11-15T05:19:58;84.32;;;35.30;;
59147;SDS011;44930;52.878;6.168;2022-11-15T05:22:23;76.85;;;32.85;;
59147;SDS011;44930;52.878;6.168;2022-11-15T05:24:49;73.30;;;33.80;;
59147;SDS011;44930;52.878;6.168;2022-11-15T05:27:14;72.97;;;31.65;;
59147;SDS011;44930;52.878;6.168;2022-11-15T05:29:40;85.40;;;33.92;;
59147;SDS011;44930;52.878;6.168;2022-11-15T05:32:07;87.88;;;36.25;;
59147;SDS011;44930;52.878;6.168;2022-11-15T05:34:34;71.80;;;33.25;;
59147;SDS011;44930;52.878;6.168;2022-11-15T05:36:59;71.65;;;34.00;;
59147;SDS011;44930;52.878;6.168;2022-11-15T05:39:25;82.00;;;34.25;;
59147;SDS011;44930;52.878;6.168;2022-11-15T05:41:52;79.57;;;34.30;;
59147;SDS011;44930;52.878;6.168;2022-11-15T05:44:27;85.38;;;35.45;;
59147;SDS011;44930;52.878;6.168;2022-11-15T05:46:53;82.05;;;32.65;;
59147;SDS011;44930;52.878;6.168;2022-11-15T05:49:21;87.72;;;34.92;;
59147;SDS011;44930;52.878;6.168;2022-11-15T05:51:52;80.80;;;33.67;;
59147;SDS011;44930;52.878;6.168;2022-11-15T05:54:18;67.53;;;31.33;;
59147;SDS011;44930;52.878;6.168;2022-11-15T05:56:46;82.63;;;34.50;;
59147;SDS011;44930;52.878;6.168;2022-11-15T05:59:12;73.57;;;32.20;;
59147;SDS011;44930;52.878;6.168;2022-11-15T06:01:38;88.72;;;33.78;;
59147;SDS011;44930;52.878;6.168;2022-11-15T06:04:05;95.35;;;37.42;;
59147;SDS011;44930;52.878;6.168;2022-11-15T06:06:30;77.38;;;33.55;;
59147;SDS011;44930;52.878;6.168;2022-11-15T06:08:56;72.43;;;34.30;;
59147;SDS011;44930;52.878;6.168;2022-11-15T06:11:21;85.28;;;35.50;;
59147;SDS011;44930;52.878;6.168;2022-11-15T06:13:47;84.00;;;36.08;;
59147;SDS011;44930;52.878;6.168;2022-11-15T06:16:13;75.43;;;33.85;;
59147;SDS011;44930;52.878;6.168;2022-11-15T06:18:38;78.68;;;34.65;;
59147;SDS011;44930;52.878;6.168;2022-11-15T06:21:04;72.80;;;32.75;;
59147;SDS011;44930;52.878;6.168;2022-11-15T06:23:33;69.72;;;34.08;;
59147;SDS011;44930;52.878;6.168;2022-11-15T06:26:00;78.72;;;34.92;;
59147;SDS011;44930;52.878;6.168;2022-11-15T06:28:30;61.40;;;29.55;;
59147;SDS011;44930;52.878;6.168;2022-11-15T06:31:07;72.20;;;33.72;;
59147;SDS011;44930;52.878;6.168;2022-11-15T06:33:35;69.18;;;32.53;;
59147;SDS011;44930;52.878;6.168;2022-11-15T06:36:02;77.35;;;34.78;;
59147;SDS011;44930;52.878;6.168;2022-11-15T06:38:29;82.88;;;33.72;;
59147;SDS011;44930;52.878;6.168;2022-11-15T06:40:55;72.07;;;32.72;;
59147;SDS011;44930;52.878;6.168;2022-11-15T06:43:25;71.75;;;32.90;;
59147;SDS011;44930;52.878;6.168;2022-11-15T06:45:51;68.93;;;33.63;;
59147;SDS011;44930;52.878;6.168;2022-11-15T06:48:17;80.05;;;34.65;;
59147;SDS011;44930;52.878;6.168;2022-11-15T06:50:42;70.30;;;35.10;;
59147;SDS011;44930;52.878;6.168;2022-11-15T06:53:14;62.97;;;32.65;;
59147;SDS011;44930;52.878;6.168;2022-11-15T06:55:40;57.75;;;31.85;;
59147;SDS011;44930;52.878;6.168;2022-11-15T06:58:06;67.65;;;33.13;;
59147;SDS011;44930;52.878;6.168;2022-11-15T07:00:31;66.05;;;31.33;;
59147;SDS011;44930;52.878;6.168;2022-11-15T07:02:59;60.72;;;31.83;;
59147;SDS011;44930;52.878;6.168;2022-11-15T07:05:25;65.88;;;32.28;;
59147;SDS011;44930;52.878;6.168;2022-11-15T07:07:52;66.22;;;30.88;;
59147;SDS011;44930;52.878;6.168;2022-11-15T07:10:18;57.97;;;30.27;;
59147;SDS011;44930;52.878;6.168;2022-11-15T07:12:46;61.65;;;32.55;;
59147;SDS011;44930;52.878;6.168;2022-11-15T07:15:13;63.25;;;31.98;;
59147;SDS011;44930;52.878;6.168;2022-11-15T07:17:39;60.70;;;31.42;;
59147;SDS011;44930;52.878;6.168;2022-11-15T07:20:05;59.05;;;31.23;;
59147;SDS011;44930;52.878;6.168;2022-11-15T07:22:31;69.82;;;32.63;;
59147;SDS011;44930;52.878;6.168;2022-11-15T07:24:56;59.40;;;30.75;;
59147;SDS011;44930;52.878;6.168;2022-11-15T07:27:22;57.30;;;31.40;;
59147;SDS011;44930;52.878;6.168;2022-11-15T07:29:47;49.33;;;27.23;;
59147;SDS011;44930;52.878;6.168;2022-11-15T07:32:13;65.95;;;32.00;;
59147;SDS011;44930;52.878;6.168;2022-11-15T07:34:38;59.25;;;30.27;;
59147;SDS011;44930;52.878;6.168;2022-11-15T07:37:04;54.10;;;28.70;;
59147;SDS011;44930;52.878;6.168;2022-11-15T07:39:29;53.92;;;30.40;;
59147;SDS011;44930;52.878;6.168;2022-11-15T07:41:55;56.10;;;28.88;;
59147;SDS011;44930;52.878;6.168;2022-11-15T07:44:41;57.63;;;30.55;;
59147;SDS011;44930;52.878;6.168;2022-11-15T07:47:06;55.15;;;29.90;;
59147;SDS011;44930;52.878;6.168;2022-11-15T07:49:32;48.63;;;26.75;;
59147;SDS011;44930;52.878;6.168;2022-11-15T07:51:57;50.13;;;29.77;;
59147;SDS011;44930;52.878;6.168;2022-11-15T07:54:23;55.00;;;29.52;;
59147;SDS011;44930;52.878;6.168;2022-11-15T07:56:49;52.65;;;29.63;;
59147;SDS011;44930;52.878;6.168;2022-11-15T07:59:14;52.50;;;29.25;;
59147;SDS011;44930;52.878;6.168;2022-11-15T08:01:40;50.70;;;30.02;;
59147;SDS011;44930;52.878;6.168;2022-11-15T08:04:05;47.35;;;29.27;;
59147;SDS011;44930;52.878;6.168;2022-11-15T08:06:31;56.38;;;30.35;;
59147;SDS011;44930;52.878;6.168;2022-11-15T08:08:56;54.72;;;28.88;;
59147;SDS011;44930;52.878;6.168;2022-11-15T08:11:22;49.40;;;29.33;;
59147;SDS011;44930;52.878;6.168;2022-11-15T08:13:47;45.88;;;28.48;;
59147;SDS011;44930;52.878;6.168;2022-11-15T08:16:13;47.35;;;28.02;;
59147;SDS011;44930;52.878;6.168;2022-11-15T08:18:39;49.95;;;28.38;;
59147;SDS011;44930;52.878;6.168;2022-11-15T08:21:05;54.95;;;28.67;;
59147;SDS011;44930;52.878;6.168;2022-11-15T08:23:30;43.88;;;27.27;;
59147;SDS011;44930;52.878;6.168;2022-11-15T08:26:03;48.35;;;27.98;;
59147;SDS011;44930;52.878;6.168;2022-11-15T08:28:30;46.85;;;26.88;;
59147;SDS011;44930;52.878;6.168;2022-11-15T08:30:56;44.70;;;27.42;;
59147;SDS011;44930;52.878;6.168;2022-11-15T08:33:22;45.42;;;27.13;;
59147;SDS011;44930;52.878;6.168;2022-11-15T08:35:47;40.75;;;25.73;;
59147;SDS011;44930;52.878;6.168;2022-11-15T08:38:13;37.15;;;24.52;;
59147;SDS011;44930;52.878;6.168;2022-11-15T08:40:39;40.58;;;25.92;;
59147;SDS011;44930;52.878;6.168;2022-11-15T08:43:05;41.83;;;25.27;;
59147;SDS011;44930;52.878;6.168;2022-11-15T08:45:31;41.80;;;24.05;;
59147;SDS011;44930;52.878;6.168;2022-11-15T08:48:00;40.45;;;26.02;;
59147;SDS011;44930;52.878;6.168;2022-11-15T08:50:26;43.58;;;27.20;;
59147;SDS011;44930;52.878;6.168;2022-11-15T08:52:52;43.67;;;26.70;;
59147;SDS011;44930;52.878;6.168;2022-11-15T08:55:17;44.35;;;26.38;;
59147;SDS011;44930;52.878;6.168;2022-11-15T08:57:43;44.45;;;25.80;;
59147;SDS011;44930;52.878;6.168;2022-11-15T09:00:09;42.00;;;25.42;;
59147;SDS011;44930;52.878;6.168;2022-11-15T09:02:37;38.10;;;25.08;;
59147;SDS011;44930;52.878;6.168;2022-11-15T09:05:03;43.70;;;26.63;;
59147;SDS011;44930;52.878;6.168;2022-11-15T09:07:30;42.67;;;27.13;;
59147;SDS011;44930;52.878;6.168;2022-11-15T09:09:56;42.92;;;26.05;;
59147;SDS011;44930;52.878;6.168;2022-11-15T09:12:22;35.42;;;23.73;;
59147;SDS011;44930;52.878;6.168;2022-11-15T09:14:48;43.20;;;25.92;;
59147;SDS011;44930;52.878;6.168;2022-11-15T09:17:14;40.28;;;24.52;;
59147;SDS011;44930;52.878;6.168;2022-11-15T09:19:39;39.20;;;23.80;;
59147;SDS011;44930;52.878;6.168;2022-11-15T09:22:06;40.90;;;25.35;;
59147;SDS011;44930;52.878;6.168;2022-11-15T09:24:32;38.90;;;24.65;;
59147;SDS011;44930;52.878;6.168;2022-11-15T09:26:58;37.03;;;23.77;;
59147;SDS011;44930;52.878;6.168;2022-11-15T09:29:24;43.47;;;25.38;;
59147;SDS011;44930;52.878;6.168;2022-11-15T09:31:51;41.13;;;25.38;;
59147;SDS011;44930;52.878;6.168;2022-11-15T09:34:17;39.15;;;23.05;;
59147;SDS011;44930;52.878;6.168;2022-11-15T09:36:43;33.33;;;24.33;;
59147;SDS011;44930;52.878;6.168;2022-11-15T09:39:08;36.72;;;23.13;;
59147;SDS011;44930;52.878;6.168;2022-11-15T09:41:45;38.47;;;23.88;;
59147;SDS011;44930;52.878;6.168;2022-11-15T09:50:11;41.95;;;27.02;;
59147;SDS011;44930;52.878;6.168;2022-11-15T09:52:38;37.45;;;23.55;;
59147;SDS011;44930;52.878;6.168;2022-11-15T09:55:10;80.25;;;49.45;;
59147;SDS011;44930;52.878;6.168;2022-11-15T09:57:57;40.42;;;25.40;;
59147;SDS011;44930;52.878;6.168;2022-11-15T10:00:33;32.35;;;20.98;;
59147;SDS011;44930;52.878;6.168;2022-11-15T10:05:50;27.20;;;20.27;;
59147;SDS011;44930;52.878;6.168;2022-11-15T10:11:31;31.65;;;18.83;;
59147;SDS011;44930;52.878;6.168;2022-11-15T10:14:00;31.58;;;19.92;;
59147;SDS011;44930;52.878;6.168;2022-11-15T10:22:00;29.75;;;18.23;;
59147;SDS011;44930;52.878;6.168;2022-11-15T10:24:45;25.83;;;17.58;;
59147;SDS011;44930;52.878;6.168;2022-11-15T10:27:15;22.50;;;17.73;;
59147;SDS011;44930;52.878;6.168;2022-11-15T10:29:43;23.33;;;15.82;;
59147;SDS011;44930;52.878;6.168;2022-11-15T10:32:11;26.92;;;18.77;;
59147;SDS011;44930;52.878;6.168;2022-11-15T10:34:38;23.80;;;15.82;;
59147;SDS011;44930;52.878;6.168;2022-11-15T10:37:03;22.27;;;16.83;;
59147;SDS011;44930;52.878;6.168;2022-11-15T10:39:29;23.63;;;15.63;;
59147;SDS011;44930;52.878;6.168;2022-11-15T10:41:55;25.25;;;15.38;;
59147;SDS011;44930;52.878;6.168;2022-11-15T10:44:26;20.85;;;13.90;;
59147;SDS011;44930;52.878;6.168;2022-11-15T10:49:20;20.23;;;13.38;;
59147;SDS011;44930;52.878;6.168;2022-11-15T10:54:51;15.90;;;11.70;;
59147;SDS011;44930;52.878;6.168;2022-11-15T10:57:15;15.40;;;12.43;;
59147;SDS011;44930;52.878;6.168;2022-11-15T10:59:45;15.90;;;11.57;;
59147;SDS011;44930;52.878;6.168;2022-11-15T11:04:59;18.08;;;11.10;;
59147;SDS011;44930;52.878;6.168;2022-11-15T11:07:27;13.23;;;9.45;;
59147;SDS011;44930;52.878;6.168;2022-11-15T11:12:50;9.95;;;7.90;;
59147;SDS011;44930;52.878;6.168;2022-11-15T11:15:16;17.15;;;11.48;;
59147;SDS011;44930;52.878;6.168;2022-11-15T11:20:18;19.05;;;11.15;;
59147;SDS011;44930;52.878;6.168;2022-11-15T11:25:38;12.02;;;8.38;;
59147;SDS011;44930;52.878;6.168;2022-11-15T11:28:48;14.82;;;8.18;;
59147;SDS011;44930;52.878;6.168;2022-11-15T11:31:42;12.75;;;7.10;;
59147;SDS011;44930;52.878;6.168;2022-11-15T11:40:04;14.98;;;8.82;;
59147;SDS011;44930;52.878;6.168;2022-11-15T11:48:42;9.68;;;7.18;;
59147;SDS011;44930;52.878;6.168;2022-11-15T11:51:28;11.88;;;8.27;;
59147;SDS011;44930;52.878;6.168;2022-11-15T11:54:05;8.60;;;6.00;;
59147;SDS011;44930;52.878;6.168;2022-11-15T11:56:36;18.17;;;12.63;;
59147;SDS011;44930;52.878;6.168;2022-11-15T12:01:41;11.25;;;6.50;;
59147;SDS011;44930;52.878;6.168;2022-11-15T12:06:39;10.85;;;5.35;;
59147;SDS011;44930;52.878;6.168;2022-11-15T12:14:45;8.90;;;5.80;;
59147;SDS011;44930;52.878;6.168;2022-11-15T12:17:23;9.95;;;5.18;;
59147;SDS011;44930;52.878;6.168;2022-11-15T12:19:51;9.40;;;5.07;;
59147;SDS011;44930;52.878;6.168;2022-11-15T12:22:22;9.15;;;4.95;;
59147;SDS011;44930;52.878;6.168;2022-11-15T12:25:08;6.75;;;4.47;;
59147;SDS011;44930;52.878;6.168;2022-11-15T12:27:40;15.10;;;10.07;;
59147;SDS011;44930;52.878;6.168;2022-11-15T12:30:16;10.73;;;8.73;;
59147;SDS011;44930;52.878;6.168;2022-11-15T12:32:49;12.07;;;8.35;;
59147;SDS011;44930;52.878;6.168;2022-11-15T12:38:00;7.73;;;4.67;;
59147;SDS011;44930;52.878;6.168;2022-11-15T12:45:40;8.93;;;3.67;;
59147;SDS011;44930;52.878;6.168;2022-11-15T12:53:32;6.63;;;3.70;;
59147;SDS011;44930;52.878;6.168;2022-11-15T13:04:12;5.80;;;2.90;;
59147;SDS011;44930;52.878;6.168;2022-11-15T13:11:57;3.47;;;2.40;;
59147;SDS011;44930;52.878;6.168;2022-11-15T13:17:02;5.78;;;2.75;;
59147;SDS011;44930;52.878;6.168;2022-11-15T13:19:47;4.20;;;2.60;;
59147;SDS011;44930;52.878;6.168;2022-11-15T13:22:43;8.82;;;3.03;;
59147;SDS011;44930;52.878;6.168;2022-11-15T13:33:57;5.47;;;2.50;;
59147;SDS011;44930;52.878;6.168;2022-11-15T13:36:20;3.10;;;2.60;;
59147;SDS011;44930;52.878;6.168;2022-11-15T13:39:01;7.35;;;2.15;;
59147;SDS011;44930;52.878;6.168;2022-11-15T13:41:29;7.28;;;2.15;;
59147;SDS011;44930;52.878;6.168;2022-11-15T13:43:57;3.97;;;1.83;;
59147;SDS011;44930;52.878;6.168;2022-11-15T13:49:02;2.70;;;1.63;;
59147;SDS011;44930;52.878;6.168;2022-11-15T13:51:33;5.97;;;1.65;;
59147;SDS011;44930;52.878;6.168;2022-11-15T13:54:06;5.65;;;3.10;;
59147;SDS011;44930;52.878;6.168;2022-11-15T13:56:57;4.80;;;2.78;;
59147;SDS011;44930;52.878;6.168;2022-11-15T13:59:31;5.28;;;1.80;;
59147;SDS011;44930;52.878;6.168;2022-11-15T14:02:12;3.97;;;1.77;;
59147;SDS011;44930;52.878;6.168;2022-11-15T14:04:48;5.82;;;1.35;;
59147;SDS011;44930;52.878;6.168;2022-11-15T14:07:23;4.07;;;1.73;;
59147;SDS011;44930;52.878;6.168;2022-11-15T14:09:52;5.63;;;3.70;;
59147;SDS011;44930;52.878;6.168;2022-11-15T14:12:25;3.90;;;1.95;;
59147;SDS011;44930;52.878;6.168;2022-11-15T14:14:51;9.27;;;2.50;;
59147;SDS011;44930;52.878;6.168;2022-11-15T14:17:36;7.20;;;5.20;;
59147;SDS011;44930;52.878;6.168;2022-11-15T14:20:18;3.10;;;2.00;;
59147;SDS011;44930;52.878;6.168;2022-11-15T14:22:52;7.45;;;2.05;;
59147;SDS011;44930;52.878;6.168;2022-11-15T14:25:23;3.25;;;1.73;;
59147;SDS011;44930;52.878;6.168;2022-11-15T14:30:44;3.92;;;2.40;;
59147;SDS011;44930;52.878;6.168;2022-11-15T14:33:25;3.47;;;1.55;;
59147;SDS011;44930;52.878;6.168;2022-11-15T14:35:57;3.88;;;1.60;;
59147;SDS011;44930;52.878;6.168;2022-11-15T14:38:27;2.53;;;1.60;;
59147;SDS011;44930;52.878;6.168;2022-11-15T14:40:53;4.97;;;1.48;;
59147;SDS011;44930;52.878;6.168;2022-11-15T14:43:20;3.35;;;1.30;;
59147;SDS011;44930;52.878;6.168;2022-11-15T14:45:46;4.82;;;1.00;;
59147;SDS011;44930;52.878;6.168;2022-11-15T14:48:12;2.20;;;1.23;;
59147;SDS011;44930;52.878;6.168;2022-11-15T14:50:38;2.47;;;1.55;;
59147;SDS011;44930;52.878;6.168;2022-11-15T14:53:04;3.90;;;1.80;;
59147;SDS011;44930;52.878;6.168;2022-11-15T14:55:34;4.88;;;2.40;;
59147;SDS011;44930;52.878;6.168;2022-11-15T14:58:04;3.83;;;1.05;;
59147;SDS011;44930;52.878;6.168;2022-11-15T15:00:32;4.10;;;1.30;;
59147;SDS011;44930;52.878;6.168;2022-11-15T15:02:58;3.97;;;1.35;;
59147;SDS011;44930;52.878;6.168;2022-11-15T15:05:34;4.32;;;1.02;;
59147;SDS011;44930;52.878;6.168;2022-11-15T15:08:07;1.88;;;0.88;;
59147;SDS011;44930;52.878;6.168;2022-11-15T15:10:34;4.03;;;1.60;;
59147;SDS011;44930;52.878;6.168;2022-11-15T15:13:05;2.75;;;1.13;;
59147;SDS011;44930;52.878;6.168;2022-11-15T15:15:36;7.65;;;1.50;;
59147;SDS011;44930;52.878;6.168;2022-11-15T15:18:03;4.45;;;1.40;;
59147;SDS011;44930;52.878;6.168;2022-11-15T15:20:30;3.15;;;1.42;;
59147;SDS011;44930;52.878;6.168;2022-11-15T15:22:57;3.55;;;1.75;;
59147;SDS011;44930;52.878;6.168;2022-11-15T15:25:27;3.35;;;1.75;;
59147;SDS011;44930;52.878;6.168;2022-11-15T15:27:53;3.38;;;1.40;;
59147;SDS011;44930;52.878;6.168;2022-11-15T15:30:20;8.32;;;5.63;;
59147;SDS011;44930;52.878;6.168;2022-11-15T15:32:46;6.55;;;3.50;;
59147;SDS011;44930;52.878;6.168;2022-11-15T15:35:13;6.97;;;5.45;;
59147;SDS011;44930;52.878;6.168;2022-11-15T15:37:40;9.32;;;5.95;;
59147;SDS011;44930;52.878;6.168;2022-11-15T15:40:10;8.98;;;5.75;;
59147;SDS011;44930;52.878;6.168;2022-11-15T15:42:37;12.82;;;9.05;;
59147;SDS011;44930;52.878;6.168;2022-11-15T15:45:03;4.13;;;2.85;;
59147;SDS011;44930;52.878;6.168;2022-11-15T15:47:29;4.45;;;2.72;;
59147;SDS011;44930;52.878;6.168;2022-11-15T15:49:54;5.63;;;3.03;;
59147;SDS011;44930;52.878;6.168;2022-11-15T15:52:20;6.97;;;2.90;;
59147;SDS011;44930;52.878;6.168;2022-11-15T15:54:45;6.43;;;4.72;;
59147;SDS011;44930;52.878;6.168;2022-11-15T15:57:12;8.35;;;4.82;;
59147;SDS011;44930;52.878;6.168;2022-11-15T15:59:38;5.40;;;3.22;;
59147;SDS011;44930;52.878;6.168;2022-11-15T16:02:05;5.25;;;3.75;;
59147;SDS011;44930;52.878;6.168;2022-11-15T16:04:31;6.38;;;4.28;;
59147;SDS011;44930;52.878;6.168;2022-11-15T16:06:59;6.78;;;3.85;;
59147;SDS011;44930;52.878;6.168;2022-11-15T16:09:25;7.18;;;4.28;;
59147;SDS011;44930;52.878;6.168;2022-11-15T16:12:10;6.68;;;4.50;;
59147;SDS011;44930;52.878;6.168;2022-11-15T16:14:35;5.35;;;4.05;;
59147;SDS011;44930;52.878;6.168;2022-11-15T16:17:01;5.18;;;3.78;;
59147;SDS011;44930;52.878;6.168;2022-11-15T16:19:27;8.07;;;3.97;;
59147;SDS011;44930;52.878;6.168;2022-11-15T16:21:53;7.53;;;4.68;;
59147;SDS011;44930;52.878;6.168;2022-11-15T16:24:19;6.22;;;4.00;;
59147;SDS011;44930;52.878;6.168;2022-11-15T16:26:45;7.00;;;3.85;;
59147;SDS011;44930;52.878;6.168;2022-11-15T16:29:12;6.15;;;4.07;;
59147;SDS011;44930;52.878;6.168;2022-11-15T16:31:38;5.03;;;3.42;;
59147;SDS011;44930;52.878;6.168;2022-11-15T16:34:04;8.57;;;4.75;;
59147;SDS011;44930;52.878;6.168;2022-11-15T16:36:32;5.47;;;3.95;;
59147;SDS011;44930;52.878;6.168;2022-11-15T16:38:59;6.45;;;3.13;;
59147;SDS011;44930;52.878;6.168;2022-11-15T16:41:25;9.82;;;4.18;;
59147;SDS011;44930;52.878;6.168;2022-11-15T16:43:50;6.47;;;3.10;;